Time;durP1;ratioP1;P1;durP2;ratioP2;P2;SDS_P1;SDS_P2;PMS_P1;PMS_P2;Temp;Humidity;BMP_temperature;BMP_pressure;BME280_temperature;BME280_humidity;BME280_pressure;Samples;Min_cycle;Max_cycle;Signal;HPM_P1;HPM_P2
2023/12/18 00:02:12;;;;;;;19.52;9.38;;;6.90;99.90;;;;;;4998778;28;20031;-69
2023/12/18 00:04:38;;;;;;;16.38;9.60;;;6.80;99.90;;;;;;4998853;28;20156;-76
2023/12/18 00:07:04;;;;;;;19.50;9.82;;;6.80;99.90;;;;;;4996655;28;20355;-75
2023/12/18 00:09:29;;;;;;;20.65;10.75;;;6.80;99.90;;;;;;4997494;28;20053;-76
2023/12/18 00:11:55;;;;;;;16.08;10.20;;;6.80;99.90;;;;;;4999984;28;20057;-74
2023/12/18 00:14:21;;;;;;;17.23;9.35;;;6.80;99.90;;;;;;4985241;28;20364;-71
2023/12/18 00:16:46;;;;;;;16.23;9.45;;;6.80;99.90;;;;;;5003274;28;20390;-72
2023/12/18 00:19:12;;;;;;;24.38;10.55;;;6.80;99.90;;;;;;4994998;28;20050;-73
2023/12/18 00:21:38;;;;;;;19.25;8.93;;;6.80;99.90;;;;;;4996077;28;20026;-74
2023/12/18 00:24:04;;;;;;;19.63;9.85;;;6.80;99.90;;;;;;5005948;28;20105;-75
2023/12/18 00:26:29;;;;;;;18.42;9.88;;;6.80;99.90;;;;;;5006185;28;20018;-70
2023/12/18 00:28:55;;;;;;;17.45;10.43;;;6.80;99.90;;;;;;5009499;28;20109;-74
2023/12/18 00:31:21;;;;;;;19.13;10.30;;;6.80;99.90;;;;;;5009262;28;20383;-69
2023/12/18 00:33:46;;;;;;;16.45;9.85;;;6.80;99.90;;;;;;5010683;28;20030;-75
2023/12/18 00:36:12;;;;;;;21.42;9.75;;;6.80;99.90;;;;;;5009776;28;20375;-71
2023/12/18 00:38:38;;;;;;;18.23;9.73;;;6.90;99.90;;;;;;4993457;28;20566;-72
2023/12/18 00:41:04;;;;;;;19.75;9.90;;;6.90;99.90;;;;;;5007242;28;20031;-70
2023/12/18 00:43:29;;;;;;;19.80;9.02;;;6.90;99.90;;;;;;5009918;28;20060;-74
2023/12/18 00:45:55;;;;;;;18.15;9.43;;;6.80;99.90;;;;;;5010798;28;20030;-71
2023/12/18 00:48:21;;;;;;;22.60;9.80;;;6.80;99.90;;;;;;4992154;28;20026;-73
2023/12/18 00:50:47;;;;;;;24.60;9.40;;;6.80;99.90;;;;;;5010734;28;20030;-73
2023/12/18 00:53:16;;;;;;;20.00;10.25;;;6.80;99.90;;;;;;5011494;28;20402;-72
2023/12/18 00:55:43;;;;;;;15.95;9.50;;;6.80;99.90;;;;;;5007436;28;20057;-70
2023/12/18 00:58:09;;;;;;;16.50;9.88;;;6.80;99.90;;;;;;5009356;28;20010;-74
2023/12/18 01:00:35;;;;;;;21.60;10.65;;;6.90;99.90;;;;;;5009184;28;20172;-70
2023/12/18 01:03:01;;;;;;;18.10;9.63;;;6.80;99.90;;;;;;5010363;28;20109;-71
2023/12/18 01:05:26;;;;;;;18.63;9.80;;;6.80;99.90;;;;;;5009609;28;20035;-71
2023/12/18 01:07:52;;;;;;;18.02;10.00;;;6.90;99.90;;;;;;5008205;28;20120;-70
2023/12/18 01:10:18;;;;;;;20.23;10.52;;;6.80;99.90;;;;;;5010943;28;20037;-74
2023/12/18 01:12:44;;;;;;;24.92;10.95;;;6.70;99.90;;;;;;5009947;28;20014;-70
2023/12/18 01:15:10;;;;;;;22.20;11.02;;;6.70;99.90;;;;;;5009851;28;20487;-70
2023/12/18 01:17:36;;;;;;;24.83;10.57;;;6.70;99.90;;;;;;5010944;28;20018;-70
2023/12/18 01:20:02;;;;;;;22.00;10.70;;;6.70;99.90;;;;;;5010651;28;20037;-70
2023/12/18 01:22:28;;;;;;;20.02;10.70;;;6.80;99.90;;;;;;4993736;28;20026;-70
2023/12/18 01:24:54;;;;;;;25.05;11.23;;;6.80;99.90;;;;;;5009329;28;20500;-70
2023/12/18 01:27:19;;;;;;;17.88;9.90;;;6.80;99.90;;;;;;5009710;28;20379;-70
2023/12/18 01:29:45;;;;;;;27.25;11.60;;;6.80;99.90;;;;;;5009986;28;20619;-70
2023/12/18 01:32:11;;;;;;;20.75;11.23;;;6.80;99.90;;;;;;5010955;28;20542;-71
2023/12/18 01:34:37;;;;;;;22.55;10.55;;;6.80;99.90;;;;;;5006841;28;20036;-71
2023/12/18 01:37:05;;;;;;;20.10;10.90;;;6.80;99.90;;;;;;5011370;28;20014;-70
2023/12/18 01:39:32;;;;;;;19.13;11.38;;;6.80;99.90;;;;;;5009788;28;20079;-70
2023/12/18 01:41:59;;;;;;;22.55;12.15;;;6.80;99.90;;;;;;5010294;28;20026;-72
2023/12/18 01:44:25;;;;;;;26.25;12.30;;;6.70;99.90;;;;;;4993760;28;20080;-71
2023/12/18 01:46:51;;;;;;;25.48;13.32;;;6.60;99.90;;;;;;5004589;28;20072;-71
2023/12/18 01:49:17;;;;;;;21.45;12.80;;;6.70;99.90;;;;;;5011550;28;20025;-70
2023/12/18 01:51:44;;;;;;;23.35;12.43;;;6.80;99.90;;;;;;5008989;28;20021;-75
2023/12/18 01:54:10;;;;;;;27.25;13.70;;;6.80;99.90;;;;;;5010817;28;20467;-73
2023/12/18 01:56:38;;;;;;;24.83;12.20;;;6.80;99.90;;;;;;5008568;28;20104;-72
2023/12/18 01:59:06;;;;;;;29.45;12.88;;;6.70;99.90;;;;;;5010165;28;20088;-76
2023/12/18 02:01:32;;;;;;;23.80;13.02;;;6.70;99.90;;;;;;5008340;28;20072;-73
2023/12/18 02:03:58;;;;;;;23.05;12.73;;;6.80;99.90;;;;;;5007493;28;20034;-74
2023/12/18 02:06:25;;;;;;;27.88;13.05;;;6.80;99.90;;;;;;5009294;28;20072;-75
2023/12/18 02:08:51;;;;;;;30.83;14.65;;;6.90;99.90;;;;;;5008367;28;20073;-71
2023/12/18 02:11:17;;;;;;;32.40;15.75;;;6.80;99.90;;;;;;5009284;28;20022;-74
2023/12/18 02:13:43;;;;;;;36.83;16.05;;;6.80;99.90;;;;;;5010975;28;20360;-74
2023/12/18 02:16:10;;;;;;;26.60;16.20;;;6.80;99.90;;;;;;5010098;28;20021;-71
2023/12/18 02:18:42;;;;;;;34.65;17.80;;;6.80;99.90;;;;;;5007997;28;20161;-73
2023/12/18 02:21:08;;;;;;;40.65;19.20;;;6.90;99.90;;;;;;5006532;28;20049;-70
2023/12/18 02:23:33;;;;;;;38.40;19.98;;;6.90;99.90;;;;;;5006578;28;20033;-70
2023/12/18 02:25:59;;;;;;;34.80;18.50;;;6.80;99.90;;;;;;5009248;28;20800;-74
2023/12/18 02:28:25;;;;;;;32.60;18.15;;;6.90;99.90;;;;;;5009673;28;20483;-75
2023/12/18 02:30:51;;;;;;;39.08;17.65;;;6.90;99.90;;;;;;5008699;28;20034;-73
2023/12/18 02:33:17;;;;;;;38.63;19.83;;;6.70;99.90;;;;;;5011390;28;20442;-71
2023/12/18 02:35:43;;;;;;;41.88;20.55;;;6.80;99.90;;;;;;5009132;28;20541;-70
2023/12/18 02:38:08;;;;;;;43.88;19.50;;;6.80;99.90;;;;;;5007945;28;20018;-71
2023/12/18 02:40:35;;;;;;;45.53;20.35;;;6.80;99.90;;;;;;5009850;28;20045;-75
2023/12/18 02:43:01;;;;;;;37.58;19.23;;;6.80;99.90;;;;;;5008791;28;20026;-74
2023/12/18 02:45:27;;;;;;;45.10;21.50;;;6.90;99.90;;;;;;5009784;28;20025;-74
2023/12/18 02:47:52;;;;;;;42.90;21.38;;;6.90;99.90;;;;;;5009440;28;20029;-75
2023/12/18 02:50:18;;;;;;;40.85;20.73;;;6.90;99.90;;;;;;5009964;28;20037;-70
2023/12/18 02:52:44;;;;;;;44.38;21.38;;;6.90;99.90;;;;;;5010099;28;20018;-70
2023/12/18 02:55:12;;;;;;;40.15;20.58;;;6.90;99.90;;;;;;5008610;28;20026;-72
2023/12/18 02:57:38;;;;;;;40.50;20.15;;;7.00;99.90;;;;;;5012077;28;20061;-77
2023/12/18 03:00:04;;;;;;;39.15;20.13;;;7.00;99.90;;;;;;5013423;28;20041;-72
2023/12/18 03:02:30;;;;;;;38.95;19.02;;;7.00;99.90;;;;;;5012297;28;20068;-70
2023/12/18 03:04:56;;;;;;;43.70;20.73;;;6.90;99.90;;;;;;5011647;28;20034;-76
2023/12/18 03:07:21;;;;;;;44.72;20.90;;;7.00;99.90;;;;;;5012303;28;20473;-77
2023/12/18 03:09:47;;;;;;;38.63;20.75;;;7.10;99.90;;;;;;5012923;28;20463;-74
2023/12/18 03:12:13;;;;;;;41.38;19.33;;;7.10;99.90;;;;;;5012229;28;20530;-74
2023/12/18 03:14:38;;;;;;;44.45;21.23;;;7.10;99.90;;;;;;5011169;28;20502;-73
2023/12/18 03:17:04;;;;;;;43.72;21.13;;;7.10;99.90;;;;;;5012154;28;20446;-71
2023/12/18 03:19:30;;;;;;;47.17;21.20;;;7.10;99.90;;;;;;5013231;28;20034;-74
2023/12/18 03:21:56;;;;;;;48.67;21.75;;;7.10;99.90;;;;;;5012164;28;20379;-71
2023/12/18 03:24:21;;;;;;;44.67;22.17;;;7.10;99.90;;;;;;5012354;28;20014;-75
2023/12/18 03:26:47;;;;;;;43.22;19.45;;;7.10;99.90;;;;;;5012054;28;20053;-73
2023/12/18 03:29:13;;;;;;;41.10;20.15;;;7.10;99.90;;;;;;4991637;28;20061;-75
2023/12/18 03:31:38;;;;;;;44.30;20.58;;;7.10;99.90;;;;;;5012802;28;20017;-74
2023/12/18 03:34:04;;;;;;;44.92;20.80;;;7.10;99.90;;;;;;5011898;28;20494;-73
2023/12/18 03:36:30;;;;;;;44.58;21.92;;;7.20;99.90;;;;;;5012606;28;20068;-71
2023/12/18 03:38:55;;;;;;;54.72;22.65;;;7.20;99.90;;;;;;5012021;28;20045;-71
2023/12/18 03:41:21;;;;;;;47.45;20.88;;;7.30;99.90;;;;;;5013881;28;20021;-70
2023/12/18 03:43:47;;;;;;;44.45;22.13;;;7.30;99.90;;;;;;5011940;28;20514;-70
2023/12/18 03:46:13;;;;;;;45.10;21.92;;;7.20;99.90;;;;;;5010704;28;20036;-70
2023/12/18 03:48:38;;;;;;;47.08;21.77;;;7.20;99.90;;;;;;5012834;28;20026;-71
2023/12/18 03:51:05;;;;;;;47.33;21.70;;;7.30;99.90;;;;;;5012726;28;20475;-74
2023/12/18 03:53:31;;;;;;;44.75;22.40;;;7.30;99.90;;;;;;5012268;28;20026;-70
2023/12/18 03:55:56;;;;;;;45.45;24.13;;;7.30;99.90;;;;;;5011768;28;20024;-70
2023/12/18 03:58:22;;;;;;;47.05;22.70;;;7.30;99.90;;;;;;5013151;28;20060;-70
2023/12/18 04:00:48;;;;;;;52.00;22.70;;;7.30;99.90;;;;;;5012396;28;20548;-72
2023/12/18 04:03:13;;;;;;;41.05;21.15;;;7.20;99.90;;;;;;5012901;28;20505;-70
2023/12/18 04:05:39;;;;;;;46.55;21.88;;;7.10;99.90;;;;;;5010816;28;20018;-75
2023/12/18 04:08:05;;;;;;;38.20;18.95;;;7.20;99.90;;;;;;5011521;28;20392;-74
2023/12/18 04:10:31;;;;;;;43.78;21.98;;;7.20;99.90;;;;;;5012797;28;20045;-69
2023/12/18 04:12:56;;;;;;;48.60;21.38;;;7.20;99.90;;;;;;5013196;28;20068;-70
2023/12/18 04:15:22;;;;;;;44.00;21.65;;;7.20;99.90;;;;;;5011161;28;20109;-70
2023/12/18 04:17:48;;;;;;;49.50;22.77;;;7.20;99.90;;;;;;5011011;28;20536;-70
2023/12/18 04:20:13;;;;;;;45.72;22.00;;;7.20;99.90;;;;;;5010710;28;20395;-70
2023/12/18 04:22:39;;;;;;;47.78;22.35;;;7.30;99.90;;;;;;5010084;28;20057;-72
2023/12/18 04:25:05;;;;;;;46.80;21.55;;;7.30;99.90;;;;;;5011979;28;20037;-72
2023/12/18 04:27:31;;;;;;;45.15;21.38;;;7.30;99.90;;;;;;5008323;28;20021;-71
2023/12/18 04:29:57;;;;;;;45.38;21.40;;;7.30;99.90;;;;;;5012386;28;20487;-70
2023/12/18 04:32:22;;;;;;;53.47;22.80;;;7.30;99.90;;;;;;5009244;28;20025;-70
2023/12/18 04:34:48;;;;;;;45.75;21.58;;;7.30;99.90;;;;;;5010877;28;20430;-73
2023/12/18 04:37:14;;;;;;;45.75;23.50;;;7.30;99.90;;;;;;5012194;28;20053;-70
2023/12/18 04:39:39;;;;;;;48.45;22.02;;;7.30;99.90;;;;;;5010902;28;20376;-70
2023/12/18 04:42:05;;;;;;;50.45;21.45;;;7.40;99.90;;;;;;5008066;28;20044;-70
2023/12/18 04:44:31;;;;;;;44.88;20.98;;;7.40;99.90;;;;;;5012467;28;20494;-71
2023/12/18 04:46:56;;;;;;;46.13;21.15;;;7.40;99.90;;;;;;5011827;28;20031;-70
2023/12/18 04:49:24;;;;;;;43.38;21.38;;;7.40;99.90;;;;;;5008257;28;20030;-71
2023/12/18 04:51:49;;;;;;;48.58;20.52;;;7.50;99.90;;;;;;5011306;28;20513;-70
2023/12/18 04:54:15;;;;;;;44.72;21.65;;;7.40;99.90;;;;;;5010557;28;20026;-70
2023/12/18 04:56:41;;;;;;;43.42;21.77;;;7.40;99.90;;;;;;5011414;28;20419;-70
2023/12/18 04:59:06;;;;;;;48.28;22.05;;;7.30;99.90;;;;;;5011764;28;20029;-73
2023/12/18 05:01:32;;;;;;;46.40;22.52;;;7.30;99.90;;;;;;5009835;28;20832;-71
2023/12/18 05:03:58;;;;;;;52.22;21.38;;;7.40;99.90;;;;;;5009111;28;20026;-70
2023/12/18 05:06:28;;;;;;;55.80;24.08;;;7.40;99.90;;;;;;5010060;28;20030;-72
2023/12/18 05:08:54;;;;;;;52.80;24.60;;;7.50;99.90;;;;;;5007274;28;20427;-70
2023/12/18 05:11:23;;;;;;;42.13;22.23;;;7.50;99.90;;;;;;5009961;28;20030;-70
2023/12/18 05:13:49;;;;;;;53.67;23.98;;;7.50;99.90;;;;;;5008425;28;20022;-69
2023/12/18 05:16:16;;;;;;;54.03;25.75;;;7.40;99.90;;;;;;5011898;28;20036;-71
2023/12/18 05:18:42;;;;;;;51.53;24.45;;;7.40;99.90;;;;;;5008934;28;20115;-70
2023/12/18 05:21:10;;;;;;;54.03;24.77;;;7.30;99.90;;;;;;5007663;28;20037;-69
2023/12/18 05:23:36;;;;;;;52.05;23.65;;;7.30;99.90;;;;;;5011349;28;20101;-70
2023/12/18 05:26:01;;;;;;;59.47;25.40;;;7.30;99.90;;;;;;5008575;28;20104;-73
2023/12/18 05:28:27;;;;;;;47.42;23.17;;;7.30;99.90;;;;;;5009952;28;20023;-74
2023/12/18 05:30:53;;;;;;;60.88;25.58;;;7.30;99.90;;;;;;5006731;28;20061;-71
2023/12/18 05:33:19;;;;;;;56.28;25.38;;;7.30;99.90;;;;;;5009429;28;20030;-71
2023/12/18 05:35:45;;;;;;;51.22;23.30;;;7.30;99.90;;;;;;5009182;28;20018;-70
2023/12/18 05:38:11;;;;;;;55.63;24.75;;;7.30;99.90;;;;;;5009011;28;20360;-70
2023/12/18 05:40:37;;;;;;;54.72;24.52;;;7.30;99.90;;;;;;5007711;28;20076;-70
2023/12/18 05:43:04;;;;;;;54.95;23.45;;;7.40;99.90;;;;;;5011427;28;20118;-70
2023/12/18 05:45:31;;;;;;;51.03;22.85;;;7.40;99.90;;;;;;5005227;28;20030;-70
2023/12/18 05:47:57;;;;;;;54.50;23.88;;;7.40;99.90;;;;;;5010262;28;20022;-70
2023/12/18 05:50:23;;;;;;;53.15;24.13;;;7.40;99.90;;;;;;5008808;28;20105;-73
2023/12/18 05:52:49;;;;;;;52.40;25.23;;;7.40;99.90;;;;;;5010116;28;20113;-70
2023/12/18 05:55:14;;;;;;;62.05;27.45;;;7.40;99.90;;;;;;4991902;28;20065;-72
2023/12/18 05:57:41;;;;;;;51.80;24.38;;;7.40;99.90;;;;;;5010215;28;20025;-70
2023/12/18 06:00:08;;;;;;;61.83;24.88;;;7.40;99.90;;;;;;5008066;28;20034;-70
2023/12/18 06:02:34;;;;;;;52.70;24.25;;;7.30;99.90;;;;;;5009697;28;20418;-70
2023/12/18 06:05:00;;;;;;;57.63;24.95;;;7.20;99.90;;;;;;5009091;28;20063;-70
2023/12/18 06:07:25;;;;;;;61.03;24.73;;;7.30;99.90;;;;;;5008664;28;20363;-70
2023/12/18 06:09:51;;;;;;;56.28;24.30;;;7.30;99.90;;;;;;5011141;28;20022;-71
2023/12/18 06:12:17;;;;;;;61.08;26.75;;;7.30;99.90;;;;;;5007420;28;20037;-71
2023/12/18 06:14:43;;;;;;;66.65;25.90;;;7.30;99.90;;;;;;5009420;28;20064;-71
2023/12/18 06:17:09;;;;;;;55.38;26.00;;;7.40;99.90;;;;;;5009091;28;20026;-70
2023/12/18 06:19:35;;;;;;;59.17;26.55;;;7.40;99.90;;;;;;5007918;28;20052;-76
2023/12/18 06:22:04;;;;;;;74.53;28.17;;;7.30;99.90;;;;;;5009387;28;20033;-71
2023/12/18 06:24:30;;;;;;;58.25;26.38;;;7.40;99.90;;;;;;5010069;28;20109;-70
2023/12/18 06:26:56;;;;;;;72.95;29.15;;;7.30;99.90;;;;;;5011380;28;20205;-70
2023/12/18 06:29:22;;;;;;;60.03;27.42;;;7.40;99.90;;;;;;5006118;28;20030;-74
2023/12/18 06:31:48;;;;;;;65.72;26.88;;;7.40;99.90;;;;;;5010003;28;20625;-70
2023/12/18 06:34:14;;;;;;;64.00;27.58;;;7.40;99.90;;;;;;5013211;28;20093;-70
2023/12/18 06:36:40;;;;;;;65.93;27.35;;;7.40;99.90;;;;;;5013749;28;20018;-69
2023/12/18 06:39:05;;;;;;;70.35;26.50;;;7.30;99.90;;;;;;5008463;28;20059;-70
2023/12/18 06:41:31;;;;;;;60.92;27.80;;;7.40;99.90;;;;;;5013523;28;20026;-71
2023/12/18 06:43:57;;;;;;;59.13;26.25;;;7.30;99.90;;;;;;4996886;28;20044;-73
2023/12/18 06:46:22;;;;;;;63.97;28.00;;;7.40;99.90;;;;;;5014120;28;20360;-70
2023/12/18 06:48:48;;;;;;;69.78;28.35;;;7.40;99.90;;;;;;4995565;28;20037;-70
2023/12/18 06:51:14;;;;;;;64.78;26.77;;;7.40;99.90;;;;;;5013907;28;20022;-70
2023/12/18 06:53:40;;;;;;;76.03;26.70;;;7.30;99.90;;;;;;5011961;28;20100;-70
2023/12/18 06:56:06;;;;;;;70.65;29.52;;;7.50;99.90;;;;;;5013279;28;20048;-69
2023/12/18 06:58:32;;;;;;;70.78;28.77;;;7.30;99.90;;;;;;5012701;28;20026;-70
2023/12/18 07:00:57;;;;;;;75.95;29.42;;;7.30;99.90;;;;;;5012460;28;20044;-72
2023/12/18 07:03:24;;;;;;;62.95;25.75;;;7.30;99.90;;;;;;5006331;28;20088;-72
2023/12/18 07:05:49;;;;;;;69.32;28.05;;;7.40;99.90;;;;;;5011970;28;20032;-70
2023/12/18 07:08:16;;;;;;;69.05;27.52;;;7.40;99.90;;;;;;5010532;28;20030;-69
2023/12/18 07:10:41;;;;;;;72.43;29.27;;;7.40;99.90;;;;;;5011844;28;20071;-70
2023/12/18 07:13:07;;;;;;;72.18;28.40;;;7.30;99.90;;;;;;5012068;28;20664;-70
2023/12/18 07:15:33;;;;;;;64.35;28.13;;;7.30;99.90;;;;;;5012535;28;20079;-70
2023/12/18 07:17:58;;;;;;;65.95;28.15;;;7.30;99.90;;;;;;5009442;28;20116;-76
2023/12/18 07:20:25;;;;;;;66.80;27.63;;;7.30;99.90;;;;;;5013161;28;20085;-76
2023/12/18 07:22:51;;;;;;;78.68;30.50;;;7.30;99.90;;;;;;5011933;28;20018;-72
2023/12/18 07:25:16;;;;;;;75.20;28.35;;;7.30;99.90;;;;;;5012763;28;20429;-73
2023/12/18 07:27:44;;;;;;;67.47;30.02;;;7.30;99.90;;;;;;5012516;28;20029;-76
2023/12/18 07:30:11;;;;;;;77.93;30.25;;;7.30;99.90;;;;;;5011279;28;20491;-70
2023/12/18 07:32:37;;;;;;;71.47;29.42;;;7.30;99.90;;;;;;5009466;28;20050;-77
2023/12/18 07:35:04;;;;;;;68.50;29.52;;;7.30;99.90;;;;;;5011208;28;20034;-71
2023/12/18 07:37:30;;;;;;;78.20;31.20;;;7.20;99.90;;;;;;5009403;28;20421;-70
2023/12/18 07:39:57;;;;;;;70.30;28.02;;;7.30;99.90;;;;;;5013083;28;20605;-77
2023/12/18 07:42:23;;;;;;;73.00;29.27;;;7.20;99.90;;;;;;5009064;28;20026;-69
2023/12/18 07:44:49;;;;;;;72.80;29.65;;;7.30;99.90;;;;;;5011238;28;20099;-71
2023/12/18 07:47:15;;;;;;;65.28;27.50;;;7.40;99.90;;;;;;5012837;28;20471;-74
2023/12/18 07:49:41;;;;;;;66.75;28.17;;;7.30;99.90;;;;;;5007995;28;20055;-75
2023/12/18 07:52:07;;;;;;;63.47;26.42;;;7.40;99.90;;;;;;5011892;28;20026;-74
2023/12/18 07:54:32;;;;;;;63.78;27.48;;;7.30;99.90;;;;;;5010195;28;20037;-71
2023/12/18 07:56:58;;;;;;;71.15;27.98;;;7.30;99.90;;;;;;5011086;28;20106;-74
2023/12/18 07:59:24;;;;;;;79.50;29.63;;;7.40;99.90;;;;;;5012168;28;20033;-71
2023/12/18 08:01:50;;;;;;;67.32;28.10;;;7.30;99.90;;;;;;5009126;28;20108;-75
2023/12/18 08:04:15;;;;;;;67.18;27.55;;;7.30;99.90;;;;;;5010776;28;20113;-71
2023/12/18 08:06:41;;;;;;;71.35;28.92;;;7.30;99.90;;;;;;4987850;28;20050;-74
2023/12/18 08:09:07;;;;;;;82.55;29.25;;;7.30;99.90;;;;;;5007694;28;20029;-72
2023/12/18 08:11:34;;;;;;;64.97;26.92;;;7.40;99.90;;;;;;5008859;28;20497;-70
2023/12/18 08:14:00;;;;;;;65.72;27.83;;;7.40;99.90;;;;;;5006830;28;20149;-73
2023/12/18 08:16:25;;;;;;;77.60;27.85;;;7.50;99.90;;;;;;5012377;28;20109;-73
2023/12/18 08:18:51;;;;;;;74.00;29.25;;;7.50;99.90;;;;;;5010686;28;20081;-74
2023/12/18 08:21:17;;;;;;;68.00;28.40;;;7.40;99.90;;;;;;5010667;28;20064;-74
2023/12/18 08:23:43;;;;;;;66.72;27.92;;;7.50;99.90;;;;;;5008985;28;20060;-76
2023/12/18 08:26:10;;;;;;;68.53;31.65;;;7.40;99.90;;;;;;5008050;28;20026;-73
2023/12/18 08:28:43;;;;;;;65.63;28.58;;;7.50;99.90;;;;;;5007322;28;20046;-73
2023/12/18 08:31:09;;;;;;;;;;;7.50;99.90;;;;;;5009958;28;20053;-75
2023/12/18 08:33:34;;;;;;;65.75;27.63;;;7.50;99.90;;;;;;5009517;28;19909;-71
2023/12/18 08:36:00;;;;;;;57.08;28.42;;;7.50;99.90;;;;;;5010309;28;20026;-73
2023/12/18 08:38:28;;;;;;;65.93;25.52;;;7.60;99.90;;;;;;4990261;28;20436;-70
2023/12/18 08:40:53;;;;;;;67.10;27.00;;;7.50;99.90;;;;;;5010696;28;20034;-71
2023/12/18 08:43:19;;;;;;;61.50;27.50;;;7.50;99.90;;;;;;5010388;28;20030;-71
2023/12/18 08:45:45;;;;;;;68.18;28.63;;;7.50;99.90;;;;;;5012560;28;20021;-72
2023/12/18 08:48:12;;;;;;;69.85;27.58;;;7.50;99.90;;;;;;5010745;28;20022;-72
2023/12/18 08:50:37;;;;;;;63.97;25.52;;;7.50;99.90;;;;;;5010321;28;20093;-70
2023/12/18 08:53:04;;;;;;;61.03;25.05;;;7.50;99.90;;;;;;5008997;28;20065;-70
2023/12/18 08:55:29;;;;;;;59.72;25.00;;;7.50;99.90;;;;;;5008215;28;20100;-72
2023/12/18 08:57:55;;;;;;;62.13;26.83;;;7.40;99.90;;;;;;5011054;28;20600;-69
2023/12/18 09:00:22;;;;;;;66.38;24.67;;;7.50;99.90;;;;;;5010512;28;20027;-71
2023/12/18 09:02:48;;;;;;;58.28;26.20;;;7.50;99.90;;;;;;5012097;28;20060;-70
2023/12/18 09:05:14;;;;;;;59.40;24.77;;;7.50;99.90;;;;;;5007678;28;20026;-72
2023/12/18 09:07:39;;;;;;;68.22;25.48;;;7.60;99.90;;;;;;5011869;28;20078;-69
2023/12/18 09:10:06;;;;;;;57.55;24.75;;;7.60;99.90;;;;;;5010498;28;20044;-70
2023/12/18 09:12:32;;;;;;;55.38;24.88;;;7.50;99.90;;;;;;5012006;28;20014;-70
2023/12/18 09:14:57;;;;;;;60.05;26.70;;;7.50;99.90;;;;;;5009828;28;20034;-70
2023/12/18 09:17:23;;;;;;;62.58;26.73;;;7.40;99.90;;;;;;4993526;28;20497;-70
2023/12/18 09:19:49;;;;;;;61.33;25.98;;;7.40;99.90;;;;;;5009150;28;20037;-72
2023/12/18 09:22:15;;;;;;;57.70;22.33;;;7.40;99.90;;;;;;5005589;28;20391;-74
2023/12/18 09:24:41;;;;;;;54.45;21.23;;;7.40;99.90;;;;;;4998376;28;20026;-75
2023/12/18 09:27:07;;;;;;;49.97;22.73;;;7.40;99.90;;;;;;5008165;28;20352;-71
2023/12/18 09:29:33;;;;;;;58.53;23.55;;;7.40;99.90;;;;;;4990123;28;20406;-74
2023/12/18 09:31:59;;;;;;;63.67;23.77;;;7.30;99.90;;;;;;5006135;28;20026;-72
2023/12/18 09:34:24;;;;;;;49.70;23.10;;;7.50;99.90;;;;;;4993208;28;20018;-70
2023/12/18 09:36:50;;;;;;;56.30;22.15;;;7.40;99.90;;;;;;5011229;28;20466;-71
2023/12/18 09:39:16;;;;;;;53.00;21.65;;;7.50;99.90;;;;;;5004447;28;20026;-70
2023/12/18 09:41:41;;;;;;;53.58;22.60;;;7.50;99.90;;;;;;4966353;28;20045;-72
2023/12/18 09:44:07;;;;;;;51.00;22.15;;;7.40;99.90;;;;;;4994961;28;20029;-72
2023/12/18 09:46:33;;;;;;;43.58;20.80;;;7.40;99.90;;;;;;4997240;28;20391;-74
2023/12/18 09:48:59;;;;;;;49.15;22.20;;;7.50;99.90;;;;;;4994831;28;20074;-72
2023/12/18 09:51:26;;;;;;;48.05;21.38;;;7.50;99.90;;;;;;4994545;28;20109;-69
2023/12/18 09:53:57;;;;;;;45.88;23.08;;;7.50;99.90;;;;;;4996998;28;20552;-72
2023/12/18 09:56:24;;;;;;;47.60;21.83;;;7.40;99.90;;;;;;4995721;28;20502;-70
2023/12/18 09:58:57;;;;;;;50.33;21.63;;;7.50;99.90;;;;;;4983922;28;20034;-70
2023/12/18 10:01:24;;;;;;;47.28;21.42;;;7.50;99.90;;;;;;4983411;28;20038;-69
2023/12/18 10:03:50;;;;;;;44.65;22.30;;;7.40;99.90;;;;;;4964783;28;20030;-71
2023/12/18 10:06:17;;;;;;;44.83;19.88;;;7.50;99.90;;;;;;4996502;28;20029;-77
2023/12/18 10:08:42;;;;;;;44.67;20.67;;;7.40;99.90;;;;;;4990123;28;20030;-71
2023/12/18 10:11:23;;;;;;;46.80;22.88;;;7.40;99.90;;;;;;5000491;28;20037;-71
2023/12/18 10:13:51;;;;;;;46.42;21.33;;;7.60;99.90;;;;;;4998876;28;20031;-74
2023/12/18 10:16:16;;;;;;;41.58;20.58;;;7.50;99.90;;;;;;4989303;28;20030;-69
2023/12/18 10:18:42;;;;;;;43.47;18.75;;;7.50;99.90;;;;;;4999155;28;20030;-73
2023/12/18 10:21:11;;;;;;;42.25;19.98;;;7.60;99.90;;;;;;4997997;28;20045;-75
2023/12/18 10:23:36;;;;;;;43.30;20.42;;;7.60;99.90;;;;;;5001067;28;20140;-70
2023/12/18 10:26:03;;;;;;;44.78;21.42;;;7.60;99.90;;;;;;4999814;28;20081;-70
2023/12/18 10:28:28;;;;;;;37.65;19.63;;;7.60;99.90;;;;;;4998142;28;20475;-72
2023/12/18 10:30:56;;;;;;;40.03;19.10;;;7.60;99.90;;;;;;4999245;28;20038;-72
2023/12/18 10:33:22;;;;;;;43.10;19.55;;;7.60;99.90;;;;;;4987971;28;20033;-70
2023/12/18 10:35:52;;;;;;;46.20;22.50;;;7.70;99.90;;;;;;4999263;28;20379;-70
2023/12/18 10:38:22;;;;;;;41.33;22.50;;;7.60;99.90;;;;;;4999635;28;20162;-70
2023/12/18 10:40:54;;;;;;;40.00;19.48;;;7.60;99.90;;;;;;4999093;28;20036;-73
2023/12/18 10:43:24;;;;;;;40.88;19.73;;;7.60;99.90;;;;;;5003271;28;20144;-70
2023/12/18 10:45:52;;;;;;;37.50;18.35;;;7.60;99.90;;;;;;4988714;28;20115;-72
2023/12/18 10:48:19;;;;;;;39.25;19.05;;;7.60;99.90;;;;;;5001367;28;20069;-73
2023/12/18 10:50:47;;;;;;;42.53;18.15;;;7.60;99.90;;;;;;5001931;28;20018;-72
2023/12/18 10:53:16;;;;;;;40.55;18.98;;;7.60;99.90;;;;;;5004654;28;20014;-71
2023/12/18 10:55:42;;;;;;;39.25;18.88;;;7.70;99.90;;;;;;5001564;28;20112;-69
2023/12/18 10:58:10;;;;;;;38.28;17.48;;;7.60;99.90;;;;;;4989947;28;20006;-70
2023/12/18 11:00:37;;;;;;;43.83;19.42;;;7.60;99.90;;;;;;5002282;28;20453;-70
2023/12/18 11:03:05;;;;;;;40.80;18.42;;;7.60;99.90;;;;;;5000849;28;20021;-73
2023/12/18 11:05:31;;;;;;;35.65;18.33;;;7.70;99.90;;;;;;5002251;28;20030;-69
2023/12/18 11:07:58;;;;;;;36.30;19.52;;;7.70;99.90;;;;;;4986041;28;20106;-69
2023/12/18 11:10:25;;;;;;;39.72;18.63;;;7.70;99.90;;;;;;4999628;28;20072;-69
2023/12/18 11:12:59;;;;;;;38.33;19.35;;;7.70;99.90;;;;;;5002552;28;20049;-70
2023/12/18 11:15:43;;;;;;;41.47;19.45;;;7.60;99.90;;;;;;5002583;28;20064;-69
2023/12/18 11:18:40;;;;;;;38.70;18.88;;;7.60;99.90;;;;;;4985165;28;20598;-70
2023/12/18 11:21:06;;;;;;;38.42;17.90;;;7.60;99.90;;;;;;4997964;28;20506;-70
2023/12/18 11:23:41;;;;;;;37.95;19.05;;;7.50;99.90;;;;;;4984378;28;20014;-70
2023/12/18 11:26:13;;;;;;;40.67;19.80;;;7.60;99.90;;;;;;4994198;28;20483;-69
2023/12/18 11:28:39;;;;;;;35.43;18.60;;;7.50;99.90;;;;;;4997211;28;20030;-69
2023/12/18 11:31:06;;;;;;;37.72;19.13;;;7.50;99.90;;;;;;4997009;28;20327;-69
2023/12/18 11:33:31;;;;;;;34.58;19.30;;;7.50;99.90;;;;;;4987227;28;20022;-69
2023/12/18 11:35:57;;;;;;;35.92;19.63;;;7.60;99.90;;;;;;4998946;28;20383;-68
2023/12/18 11:38:24;;;;;;;37.10;18.50;;;7.60;99.90;;;;;;4997935;28;20378;-70
2023/12/18 11:40:53;;;;;;;36.72;18.80;;;7.60;99.90;;;;;;4995143;28;20033;-69
2023/12/18 11:43:38;;;;;;;37.70;19.17;;;7.50;99.90;;;;;;4983960;28;20126;-69
2023/12/18 11:46:09;;;;;;;34.30;15.90;;;7.50;99.90;;;;;;4997834;28;20025;-74
2023/12/18 11:48:35;;;;;;;29.63;16.00;;;7.50;99.90;;;;;;4996148;28;20491;-71
2023/12/18 11:51:02;;;;;;;29.65;15.93;;;7.50;99.90;;;;;;4997183;28;20010;-72
2023/12/18 11:53:32;;;;;;;32.97;16.48;;;7.50;99.90;;;;;;4995046;28;20171;-70
2023/12/18 11:55:58;;;;;;;35.53;16.20;;;7.50;99.90;;;;;;4998276;28;20022;-73
2023/12/18 11:58:27;;;;;;;31.13;16.58;;;7.50;99.90;;;;;;4997843;28;20034;-74
2023/12/18 12:00:55;;;;;;;34.42;18.10;;;7.60;99.90;;;;;;4997410;28;20093;-76
2023/12/18 12:03:22;;;;;;;31.00;17.25;;;7.60;99.90;;;;;;4998294;28;20513;-71
2023/12/18 12:05:49;;;;;;;31.02;16.00;;;7.60;99.90;;;;;;4999084;28;20034;-70
2023/12/18 12:08:15;;;;;;;31.70;17.95;;;7.50;99.90;;;;;;4996238;28;20072;-72
2023/12/18 12:10:46;;;;;;;32.97;16.85;;;7.50;99.90;;;;;;4993608;28;20023;-70
2023/12/18 12:13:25;;;;;;;31.23;17.08;;;7.50;99.90;;;;;;4984876;28;20061;-70
2023/12/18 12:15:59;;;;;;;35.63;18.27;;;7.40;99.90;;;;;;4995340;28;20038;-72
2023/12/18 12:18:28;;;;;;;36.13;17.83;;;7.40;99.90;;;;;;4995163;28;20495;-72
2023/12/18 12:20:54;;;;;;;33.15;17.90;;;7.40;99.90;;;;;;4995348;28;20062;-73
2023/12/18 12:23:20;;;;;;;35.53;19.00;;;7.50;99.90;;;;;;4998401;28;20104;-77
2023/12/18 12:25:48;;;;;;;34.38;18.90;;;7.40;99.90;;;;;;4997877;28;20105;-72
2023/12/18 12:28:15;;;;;;;38.95;16.98;;;7.40;99.90;;;;;;5000859;28;20168;-71
2023/12/18 12:30:44;;;;;;;36.88;17.17;;;7.30;99.90;;;;;;4996191;28;20030;-72
2023/12/18 12:33:10;;;;;;;38.45;19.63;;;7.40;99.90;;;;;;4999181;28;20034;-75
2023/12/18 12:35:36;;;;;;;33.65;17.95;;;7.40;99.90;;;;;;4998021;28;20437;-75